createdAt,value
2017-09-25T00:00:49.810Z,17.03
2017-09-25T00:03:18.162Z,16.60
2017-09-25T00:05:45.741Z,18.77
2017-09-25T00:08:13.342Z,18.00
2017-09-25T00:10:40.925Z,19.30
2017-09-25T00:13:08.524Z,19.90
2017-09-25T00:15:36.111Z,19.00
2017-09-25T00:18:03.694Z,18.90
2017-09-25T00:20:31.257Z,18.10
2017-09-25T00:22:58.849Z,19.80
2017-09-25T00:25:26.422Z,17.80
2017-09-25T00:27:53.999Z,21.00
2017-09-25T00:30:22.366Z,22.23
2017-09-25T00:32:50.726Z,23.43
2017-09-25T00:35:18.334Z,23.70
2017-09-25T00:37:45.914Z,24.20
2017-09-25T00:40:13.602Z,23.73
2017-09-25T00:42:41.197Z,23.63
2017-09-25T00:45:09.561Z,23.00
2017-09-25T00:47:37.152Z,23.80
2017-09-25T00:50:05.538Z,24.93
2017-09-25T00:52:45.090Z,25.07
2017-09-25T00:55:24.595Z,22.10
2017-09-25T00:57:52.176Z,22.17
2017-09-25T01:00:32.239Z,22.27
2017-09-25T01:03:11.678Z,21.67
2017-09-25T01:05:51.060Z,23.07
2017-09-25T01:08:18.656Z,22.67
2017-09-25T01:10:46.977Z,22.23
2017-09-25T01:13:14.567Z,24.30
2017-09-25T01:15:42.166Z,21.93
2017-09-25T01:18:10.525Z,23.90
2017-09-25T01:20:38.106Z,22.13
2017-09-25T01:23:06.436Z,24.30
2017-09-25T01:25:34.005Z,21.93
2017-09-25T01:28:01.587Z,23.20
2017-09-25T01:30:29.176Z,22.60
2017-09-25T01:32:56.735Z,21.30
2017-09-25T01:35:24.527Z,21.27
2017-09-25T01:37:52.118Z,22.90
2017-09-25T01:40:19.948Z,21.00
2017-09-25T01:42:47.567Z,21.50
2017-09-25T01:45:15.121Z,22.70
2017-09-25T01:47:42.719Z,22.10
2017-09-25T01:50:10.406Z,21.60
2017-09-25T01:52:37.987Z,21.63
2017-09-25T01:55:05.574Z,22.00
2017-09-25T01:57:33.194Z,22.40
2017-09-25T02:00:00.805Z,22.17
2017-09-25T02:02:29.135Z,22.50
2017-09-25T02:04:56.719Z,22.87
2017-09-25T02:07:24.301Z,24.70
2017-09-25T02:09:51.877Z,21.70
2017-09-25T02:12:20.246Z,24.10
2017-09-25T02:14:48.866Z,24.40
2017-09-25T02:17:16.462Z,22.67
2017-09-25T02:19:44.042Z,22.13
2017-09-25T02:22:12.066Z,25.10
2017-09-25T02:24:39.658Z,23.77
2017-09-25T02:27:07.261Z,25.13
2017-09-25T02:29:35.625Z,22.17
2017-09-25T02:32:03.968Z,22.57
2017-09-25T02:34:31.580Z,23.23
2017-09-25T02:36:59.918Z,21.60
2017-09-25T02:39:27.543Z,22.20
2017-09-25T02:41:55.129Z,23.70
2017-09-25T02:44:22.705Z,20.53
2017-09-25T02:46:50.521Z,22.67
2017-09-25T02:49:18.086Z,20.00
2017-09-25T02:51:45.705Z,19.57
2017-09-25T02:54:13.312Z,20.33
2017-09-25T02:56:40.946Z,19.40
2017-09-25T02:59:09.325Z,19.73
2017-09-25T03:01:36.903Z,19.97
2017-09-25T03:04:05.253Z,18.90
2017-09-25T03:06:32.823Z,22.93
2017-09-25T03:09:01.178Z,20.30
2017-09-25T03:11:29.018Z,19.83
2017-09-25T03:13:56.611Z,16.57
2017-09-25T03:16:24.206Z,18.60
2017-09-25T03:18:52.562Z,19.80
2017-09-25T03:21:20.163Z,19.10
2017-09-25T03:23:47.729Z,17.40
2017-09-25T03:26:15.318Z,18.00
2017-09-25T03:28:42.901Z,19.50
2017-09-25T03:31:10.517Z,20.47
2017-09-25T03:33:38.165Z,21.10
2017-09-25T03:36:05.750Z,20.10
2017-09-25T03:38:33.342Z,20.43
2017-09-25T03:41:00.926Z,17.77
2017-09-25T03:43:29.269Z,19.00
2017-09-25T03:45:56.852Z,17.77
2017-09-25T03:48:24.426Z,17.67
2017-09-25T03:50:52.795Z,19.43
2017-09-25T03:53:20.350Z,21.13
2017-09-25T03:55:47.921Z,18.77
2017-09-25T03:58:16.318Z,20.00
2017-09-25T04:00:44.640Z,19.70
2017-09-25T04:03:12.222Z,18.90
2017-09-25T04:05:39.812Z,22.60
2017-09-25T04:08:08.175Z,20.03
2017-09-25T04:10:35.773Z,23.13
2017-09-25T04:13:03.362Z,20.57
2017-09-25T04:15:30.934Z,21.20
2017-09-25T04:17:58.502Z,20.87
2017-09-25T04:20:26.103Z,21.10
2017-09-25T04:22:54.433Z,21.00
2017-09-25T04:25:22.022Z,17.43
2017-09-25T04:27:49.639Z,19.40
2017-09-25T04:30:17.279Z,16.43
2017-09-25T04:32:44.835Z,14.90
2017-09-25T04:35:12.401Z,17.03
2017-09-25T04:37:40.001Z,17.80
2017-09-25T04:40:07.574Z,17.27
2017-09-25T04:42:35.270Z,17.67
2017-09-25T04:45:03.633Z,16.33
2017-09-25T04:47:31.223Z,16.27
2017-09-25T04:49:58.942Z,17.70
2017-09-25T04:52:26.527Z,15.83
2017-09-25T04:54:54.906Z,16.17
2017-09-25T04:57:22.470Z,18.07
2017-09-25T04:59:50.821Z,16.90
2017-09-25T05:02:18.411Z,16.70
2017-09-25T05:04:46.747Z,15.83
2017-09-25T05:07:14.402Z,16.83
2017-09-25T05:09:41.969Z,16.00
2017-09-25T05:12:09.558Z,18.17
2017-09-25T05:14:37.142Z,16.50
2017-09-25T05:17:05.453Z,16.20
2017-09-25T05:19:33.025Z,17.83
2017-09-25T05:22:00.632Z,15.27
2017-09-25T05:24:28.207Z,15.93
2017-09-25T05:26:56.557Z,17.67
2017-09-25T05:29:24.129Z,15.43
2017-09-25T05:31:51.714Z,16.27
2017-09-25T05:34:20.034Z,17.30
2017-09-25T05:36:47.609Z,15.70
2017-09-25T05:39:19.936Z,16.53
2017-09-25T05:41:47.520Z,15.83
2017-09-25T05:44:15.118Z,16.03
2017-09-25T05:46:46.348Z,15.50
2017-09-25T05:49:20.395Z,16.27
2017-09-25T05:51:48.030Z,16.97
2017-09-25T05:54:15.682Z,17.00
2017-09-25T05:56:43.249Z,17.07
2017-09-25T05:59:10.854Z,15.67
2017-09-25T06:01:38.439Z,16.23
2017-09-25T06:04:06.046Z,15.47
2017-09-25T06:06:33.719Z,14.20
2017-09-25T06:09:01.302Z,15.80
2017-09-25T06:11:28.878Z,16.10
2017-09-25T06:13:56.469Z,14.47
2017-09-25T06:16:24.078Z,15.77
2017-09-25T06:18:57.319Z,15.50
2017-09-25T06:21:25.729Z,15.70
2017-09-25T06:23:53.291Z,15.30
2017-09-25T06:26:20.887Z,16.10
2017-09-25T06:28:48.452Z,14.13
2017-09-25T06:31:16.258Z,16.73
2017-09-25T06:33:43.865Z,15.70
2017-09-25T06:36:11.434Z,13.50
2017-09-25T06:38:39.017Z,13.80
2017-09-25T06:41:06.597Z,16.17
2017-09-25T06:43:34.378Z,14.93
2017-09-25T06:46:01.958Z,13.30
2017-09-25T06:48:30.312Z,12.97
2017-09-25T06:50:57.887Z,14.73
2017-09-25T06:53:25.531Z,12.97
2017-09-25T06:55:53.097Z,12.33
2017-09-25T06:58:20.696Z,13.10
2017-09-25T07:00:49.146Z,14.20
2017-09-25T07:03:16.753Z,14.07
2017-09-25T07:05:44.511Z,14.57
2017-09-25T07:08:12.083Z,13.60
2017-09-25T07:10:39.649Z,13.27
2017-09-25T07:13:07.526Z,14.47
2017-09-25T07:15:35.115Z,13.87
2017-09-25T07:18:02.666Z,12.60
2017-09-25T07:20:30.607Z,13.70
2017-09-25T07:22:58.188Z,12.90
2017-09-25T07:25:25.771Z,13.30
2017-09-25T07:27:53.383Z,12.03
2017-09-25T07:30:20.978Z,13.37
2017-09-25T07:32:48.583Z,12.63
2017-09-25T07:35:16.917Z,12.70
2017-09-25T07:37:44.538Z,12.47
2017-09-25T07:40:12.123Z,10.83
2017-09-25T07:42:39.690Z,10.20
2017-09-25T07:45:07.294Z,10.47
2017-09-25T07:47:34.882Z,11.17
2017-09-25T07:50:02.501Z,10.43
2017-09-25T07:52:30.118Z,10.73
2017-09-25T07:54:57.691Z,10.43
2017-09-25T07:57:25.283Z,10.63
2017-09-25T07:59:52.867Z,10.23
2017-09-25T08:02:21.286Z,10.50
2017-09-25T08:04:48.859Z,9.63
2017-09-25T08:07:16.425Z,10.00
2017-09-25T08:09:44.027Z,10.90
2017-09-25T08:12:13.006Z,10.47
2017-09-25T08:14:40.582Z,10.20
2017-09-25T08:17:08.170Z,10.10
2017-09-25T08:19:35.779Z,9.33
2017-09-25T08:22:03.374Z,10.40
2017-09-25T08:24:31.720Z,10.20
2017-09-25T08:26:59.290Z,10.33
2017-09-25T08:29:26.886Z,10.70
2017-09-25T08:31:55.226Z,10.77
2017-09-25T08:34:22.820Z,10.20
2017-09-25T08:36:51.233Z,9.80
2017-09-25T08:39:18.813Z,9.13
2017-09-25T08:41:46.482Z,9.37
2017-09-25T08:44:14.061Z,7.33
2017-09-25T08:46:41.649Z,8.30
2017-09-25T08:49:09.976Z,7.53
2017-09-25T08:51:37.543Z,7.67
2017-09-25T08:54:05.108Z,7.93
2017-09-25T08:56:32.677Z,9.27
2017-09-25T08:59:00.262Z,8.70
2017-09-25T09:01:27.819Z,8.40
2017-09-25T09:03:56.188Z,8.33
2017-09-25T09:06:23.758Z,8.87
2017-09-25T09:08:52.092Z,9.27
2017-09-25T09:11:19.691Z,8.83
2017-09-25T09:13:47.255Z,9.23
2017-09-25T09:16:15.066Z,9.93
2017-09-25T09:18:42.638Z,10.60
2017-09-25T09:21:10.236Z,11.90
2017-09-25T09:23:37.830Z,11.60
2017-09-25T09:26:05.426Z,11.60
2017-09-25T09:28:33.014Z,10.23
2017-09-25T09:31:00.599Z,11.03
2017-09-25T09:33:30.745Z,9.70
2017-09-25T09:35:58.326Z,11.40
2017-09-25T09:38:25.921Z,10.40
2017-09-25T09:40:53.492Z,12.37
2017-09-25T09:43:21.144Z,11.50
2017-09-25T09:45:48.710Z,11.07
2017-09-25T09:48:16.449Z,10.17
2017-09-25T09:50:44.050Z,11.30
2017-09-25T09:53:14.030Z,10.03
2017-09-25T09:55:41.623Z,9.67
2017-09-25T09:58:09.226Z,9.37
2017-09-25T10:00:36.829Z,8.40
2017-09-25T10:03:04.413Z,7.90
2017-09-25T10:05:32.767Z,8.73
2017-09-25T10:08:01.090Z,8.40
2017-09-25T10:10:28.658Z,9.47
2017-09-25T10:12:56.222Z,9.30
2017-09-25T10:15:23.817Z,9.93
2017-09-25T10:17:51.417Z,9.90
2017-09-25T10:20:19.792Z,10.10
2017-09-25T10:22:48.154Z,10.23
2017-09-25T10:25:15.764Z,10.00
2017-09-25T10:27:43.346Z,10.07
2017-09-25T10:30:10.954Z,8.60
2017-09-25T10:32:38.537Z,9.43
2017-09-25T10:35:06.888Z,9.73
2017-09-25T10:37:34.482Z,8.53
2017-09-25T10:40:02.085Z,9.93
2017-09-25T10:42:29.849Z,9.63
2017-09-25T10:44:57.408Z,10.97
2017-09-25T10:47:25.012Z,9.87
2017-09-25T10:49:53.346Z,11.57
2017-09-25T10:52:20.956Z,12.07
2017-09-25T10:54:49.294Z,12.53
2017-09-25T10:57:16.985Z,13.60
2017-09-25T10:59:44.586Z,12.17
2017-09-25T11:02:12.193Z,13.17
2017-09-25T11:04:39.768Z,12.50
2017-09-25T11:07:07.345Z,13.10
2017-09-25T11:09:35.702Z,12.20
2017-09-25T11:12:03.314Z,12.13
2017-09-25T11:14:30.930Z,13.57
2017-09-25T11:16:58.518Z,12.70
2017-09-25T11:19:26.882Z,13.13
2017-09-25T11:21:55.318Z,13.03
2017-09-25T11:24:22.931Z,11.93
2017-09-25T11:26:51.275Z,13.07
2017-09-25T11:29:18.863Z,12.67
2017-09-25T11:31:46.519Z,12.20
2017-09-25T11:34:14.110Z,12.63
2017-09-25T11:36:41.700Z,12.40
2017-09-25T11:39:11.022Z,13.60
2017-09-25T11:41:43.483Z,11.83
2017-09-25T11:44:12.194Z,12.60
2017-09-25T11:46:42.784Z,12.40
2017-09-25T11:49:10.346Z,12.77
2017-09-25T11:51:37.954Z,13.53
2017-09-25T11:54:05.530Z,13.27
2017-09-25T11:56:34.522Z,13.50
2017-09-25T11:59:02.916Z,13.20
2017-09-25T12:01:31.246Z,14.40
2017-09-25T12:03:59.233Z,12.37
2017-09-25T12:06:26.806Z,13.93
2017-09-25T12:08:54.381Z,14.77
2017-09-25T12:11:21.987Z,15.63
2017-09-25T12:13:49.582Z,15.40
2017-09-25T12:16:17.154Z,15.37
2017-09-25T12:18:45.506Z,16.40
2017-09-25T12:21:13.218Z,15.63
2017-09-25T12:23:40.811Z,15.50
2017-09-25T12:26:08.419Z,15.47
2017-09-25T12:28:35.990Z,15.43
2017-09-25T12:31:04.343Z,14.90
2017-09-25T12:33:31.931Z,14.63
2017-09-25T12:36:00.255Z,15.90
2017-09-25T12:38:27.871Z,14.80
2017-09-25T12:40:56.258Z,13.83
2017-09-25T12:43:24.597Z,13.63
2017-09-25T12:45:52.184Z,13.23
2017-09-25T12:48:20.537Z,12.17
2017-09-25T12:50:48.155Z,12.43
2017-09-25T12:53:15.991Z,13.70
2017-09-25T12:55:43.548Z,14.60
2017-09-25T12:58:11.143Z,14.73
2017-09-25T13:00:41.694Z,13.53
2017-09-25T13:03:10.050Z,14.43
2017-09-25T13:05:37.667Z,16.27
2017-09-25T13:08:05.268Z,13.93
2017-09-25T13:10:33.618Z,13.73
2017-09-25T13:13:04.193Z,13.83
2017-09-25T13:15:31.809Z,15.30
2017-09-25T13:17:59.404Z,13.83
2017-09-25T13:20:26.979Z,14.30
2017-09-25T13:22:54.595Z,14.70
2017-09-25T13:25:22.177Z,14.27
2017-09-25T13:27:50.530Z,13.47
2017-09-25T13:30:18.144Z,13.90
2017-09-25T13:32:46.289Z,15.23
2017-09-25T13:35:14.636Z,14.50
2017-09-25T13:37:42.260Z,15.90
2017-09-25T13:40:09.845Z,15.30
2017-09-25T13:42:37.472Z,14.50
2017-09-25T13:45:05.087Z,15.23
2017-09-25T13:47:32.685Z,15.47
2017-09-25T13:50:01.046Z,15.67
2017-09-25T13:52:28.706Z,14.13
2017-09-25T13:54:56.298Z,14.30
2017-09-25T13:57:23.893Z,13.93
2017-09-25T14:02:26.079Z,17.10
2017-09-25T14:04:53.666Z,15.70
2017-09-25T14:07:21.310Z,17.20
2017-09-25T14:09:48.889Z,15.83
2017-09-25T14:12:16.482Z,16.97
2017-09-25T14:14:44.832Z,16.37
2017-09-25T14:17:12.421Z,15.23
2017-09-25T14:19:41.735Z,16.90
2017-09-25T14:22:09.435Z,16.60
2017-09-25T14:24:37.023Z,16.70
2017-09-25T14:27:04.630Z,19.33
2017-09-25T14:29:32.198Z,17.47
2017-09-25T14:31:59.826Z,18.70
2017-09-25T14:34:28.176Z,18.13
2017-09-25T14:36:55.753Z,19.00
2017-09-25T14:39:23.628Z,19.63
2017-09-25T14:41:51.963Z,19.87
2017-09-25T14:44:19.554Z,19.93
2017-09-25T14:46:47.141Z,18.80
2017-09-25T14:49:15.500Z,18.20
2017-09-25T14:51:43.092Z,20.77
2017-09-25T14:54:10.675Z,19.30
2017-09-25T14:56:38.320Z,18.57
2017-09-25T14:59:05.911Z,19.87
2017-09-25T15:01:33.531Z,19.73
2017-09-25T15:04:01.125Z,18.53
2017-09-25T15:06:28.707Z,19.10
2017-09-25T15:08:56.294Z,18.87
2017-09-25T15:11:24.653Z,20.13
2017-09-25T15:13:52.227Z,21.37
2017-09-25T15:16:19.817Z,19.10
2017-09-25T15:18:47.702Z,19.80
2017-09-25T15:21:15.287Z,18.73
2017-09-25T15:23:42.977Z,19.90
2017-09-25T15:26:10.542Z,20.23
2017-09-25T15:28:38.129Z,21.60
2017-09-25T15:31:05.706Z,19.40
2017-09-25T15:33:33.293Z,21.33
2017-09-25T15:36:00.869Z,22.50
2017-09-25T15:38:28.434Z,19.73
2017-09-25T15:40:56.025Z,21.23
2017-09-25T15:43:24.392Z,19.90
2017-09-25T15:45:52.754Z,19.27
2017-09-25T15:48:20.346Z,17.50
2017-09-25T15:50:48.769Z,18.03
2017-09-25T15:53:16.346Z,18.80
2017-09-25T15:55:43.962Z,19.50
2017-09-25T15:58:11.578Z,17.73
2017-09-25T16:00:39.174Z,19.83
2017-09-25T16:03:07.554Z,18.43
2017-09-25T16:05:35.915Z,17.73
2017-09-25T16:08:03.540Z,18.60
2017-09-25T16:10:31.119Z,19.57
2017-09-25T16:12:58.718Z,18.70
2017-09-25T16:15:27.049Z,17.57
2017-09-25T16:17:54.650Z,18.87
2017-09-25T16:20:22.999Z,19.70
2017-09-25T16:22:50.585Z,19.47
2017-09-25T16:25:18.203Z,18.73
2017-09-25T16:27:45.770Z,18.87
2017-09-25T16:30:13.422Z,19.57
2017-09-25T16:32:41.062Z,19.30
2017-09-25T16:35:08.662Z,19.33
2017-09-25T16:37:36.259Z,19.80
2017-09-25T16:40:04.604Z,20.20
2017-09-25T16:42:32.202Z,20.80
2017-09-25T16:45:00.575Z,19.73
2017-09-25T16:47:28.159Z,18.47
2017-09-25T16:49:55.811Z,21.37
2017-09-25T16:52:24.978Z,21.37
2017-09-25T16:54:52.626Z,21.40
2017-09-25T16:57:20.217Z,20.37
2017-09-25T16:59:48.598Z,21.10
2017-09-25T17:02:16.946Z,22.17
2017-09-25T17:04:44.520Z,22.70
2017-09-25T17:07:12.132Z,20.97
2017-09-25T17:09:39.732Z,20.67
2017-09-25T17:12:07.325Z,21.60
2017-09-25T17:14:35.695Z,22.40
2017-09-25T17:17:03.307Z,20.93
2017-09-25T17:19:31.969Z,21.00
2017-09-25T17:22:00.383Z,20.03
2017-09-25T17:24:27.954Z,20.97
2017-09-25T17:26:55.550Z,20.07
2017-09-25T17:29:23.161Z,20.50
2017-09-25T17:31:50.734Z,22.67
2017-09-25T17:34:18.312Z,22.97
2017-09-25T17:36:45.900Z,22.90
2017-09-25T17:39:13.516Z,23.47
2017-09-25T17:41:41.153Z,23.83
2017-09-25T17:44:08.924Z,26.87
2017-09-25T17:46:40.419Z,26.83
2017-09-25T17:49:10.956Z,23.97
2017-09-25T17:51:41.781Z,25.77
2017-09-25T17:54:09.648Z,25.20
2017-09-25T17:56:37.263Z,22.53
2017-09-25T17:59:07.489Z,21.87
2017-09-25T18:01:35.823Z,22.90
2017-09-25T18:04:04.423Z,23.90
2017-09-25T18:06:32.002Z,24.50
2017-09-25T18:09:00.390Z,24.17
2017-09-25T18:11:27.986Z,24.50
2017-09-25T18:13:55.580Z,24.60
2017-09-25T18:16:23.196Z,24.90
2017-09-25T18:18:50.774Z,22.93
2017-09-25T18:21:18.365Z,24.07
2017-09-25T18:23:46.006Z,24.90
2017-09-25T18:26:13.582Z,25.87
2017-09-25T18:28:41.174Z,27.77
2017-09-25T18:31:09.530Z,26.27
2017-09-25T18:33:37.982Z,27.33
2017-09-25T18:36:05.827Z,26.20
2017-09-25T18:38:33.414Z,25.87
2017-09-25T18:41:01.383Z,26.33
2017-09-25T18:43:33.687Z,26.43
2017-09-25T18:46:01.921Z,25.33
2017-09-25T18:48:32.758Z,24.70
2017-09-25T18:51:01.346Z,24.43
2017-09-25T18:53:32.770Z,26.37
2017-09-25T18:56:01.740Z,26.97
2017-09-25T18:58:29.386Z,23.90
2017-09-25T19:00:57.093Z,26.30
2017-09-25T19:03:24.993Z,25.43
2017-09-25T19:05:58.147Z,24.57
2017-09-25T19:08:27.183Z,22.63
2017-09-25T19:10:58.509Z,21.03
2017-09-25T19:13:30.954Z,22.27
2017-09-25T19:16:00.621Z,22.30
2017-09-25T19:18:29.955Z,22.33
2017-09-25T19:20:58.921Z,22.57
2017-09-25T19:23:26.848Z,22.90
2017-09-25T19:26:02.401Z,23.77
2017-09-25T19:28:30.105Z,22.80
2017-09-25T19:30:57.710Z,23.37
2017-09-25T19:33:33.930Z,23.90
2017-09-25T19:36:04.794Z,25.43
2017-09-25T19:38:32.480Z,25.13
2017-09-25T19:41:00.137Z,26.67
2017-09-25T19:43:28.519Z,25.40
2017-09-25T19:45:56.137Z,27.60
2017-09-25T19:48:33.006Z,24.83
2017-09-25T19:51:09.708Z,27.20
2017-09-25T19:53:37.318Z,25.20
2017-09-25T19:56:07.386Z,25.20
2017-09-25T19:58:49.871Z,23.70
2017-09-25T20:01:23.651Z,22.70
2017-09-25T20:03:51.314Z,21.63
2017-09-25T20:06:18.928Z,21.57
2017-09-25T20:08:46.489Z,21.97
2017-09-25T20:11:14.114Z,21.27
2017-09-25T20:13:42.283Z,22.87
2017-09-25T20:16:16.861Z,22.53
2017-09-25T20:18:45.196Z,22.63
2017-09-25T20:21:12.838Z,22.70
2017-09-25T20:23:40.445Z,22.20
2017-09-25T20:26:09.037Z,22.77
2017-09-25T20:28:36.638Z,25.30
2017-09-25T20:31:04.245Z,25.47
2017-09-25T20:33:31.939Z,25.37
2017-09-25T20:36:01.104Z,25.93
2017-09-25T20:38:33.978Z,23.10
2017-09-25T20:41:08.110Z,25.13
2017-09-25T20:43:37.359Z,24.43
2017-09-25T20:46:04.954Z,22.97
2017-09-25T20:48:32.523Z,22.70
2017-09-25T20:51:00.113Z,20.80
2017-09-25T20:53:28.456Z,20.80
2017-09-25T20:55:56.062Z,21.57
2017-09-25T20:58:24.666Z,21.50
2017-09-25T21:00:52.293Z,23.27
2017-09-25T21:03:20.633Z,23.20
2017-09-25T21:05:48.218Z,23.57
2017-09-25T21:08:15.811Z,23.90
2017-09-25T21:10:44.191Z,23.70
2017-09-25T21:13:12.570Z,21.73
2017-09-25T21:15:40.904Z,22.63
2017-09-25T21:18:08.473Z,24.03
2017-09-25T21:20:36.270Z,22.67
2017-09-25T21:23:04.626Z,23.03
2017-09-25T21:25:32.661Z,21.87
2017-09-25T21:28:00.221Z,22.60
2017-09-25T21:30:27.799Z,23.67
2017-09-25T21:32:55.435Z,21.20
2017-09-25T21:35:23.042Z,24.20
2017-09-25T21:37:50.631Z,25.40
2017-09-25T21:40:18.967Z,26.13
2017-09-25T21:42:46.600Z,24.53
2017-09-25T21:45:14.170Z,25.90
2017-09-25T21:47:41.791Z,24.67
2017-09-25T21:50:10.122Z,25.50
2017-09-25T21:52:37.728Z,24.90
2017-09-25T21:55:06.087Z,25.40
2017-09-25T21:57:33.696Z,25.27
2017-09-25T22:00:01.273Z,25.17
2017-09-25T22:02:28.920Z,24.03
2017-09-25T22:04:56.493Z,22.97
2017-09-25T22:07:24.143Z,22.70
2017-09-25T22:09:51.733Z,22.97
2017-09-25T22:12:19.323Z,23.80
2017-09-25T22:14:46.946Z,22.47
2017-09-25T22:17:14.534Z,22.90
2017-09-25T22:19:42.918Z,24.80
2017-09-25T22:22:10.503Z,22.73
2017-09-25T22:24:38.870Z,24.17
2017-09-25T22:27:06.465Z,22.50
2017-09-25T22:29:34.063Z,22.97
2017-09-25T22:32:01.642Z,24.57
2017-09-25T22:34:29.214Z,23.73
2017-09-25T22:36:56.829Z,23.23
2017-09-25T22:39:24.421Z,24.60
2017-09-25T22:41:52.089Z,24.97
2017-09-25T22:44:29.564Z,23.60
2017-09-25T22:46:57.152Z,22.10
2017-09-25T22:49:24.759Z,22.63
2017-09-25T22:51:52.330Z,22.97
2017-09-25T22:54:20.014Z,22.00
2017-09-25T22:56:47.857Z,23.53
2017-09-25T22:59:15.436Z,22.60
2017-09-25T23:01:43.026Z,23.20
2017-09-25T23:04:13.057Z,23.20
2017-09-25T23:06:41.414Z,22.50
2017-09-25T23:09:08.974Z,23.03
2017-09-25T23:14:34.455Z,20.73
2017-09-25T23:17:02.047Z,21.67
2017-09-25T23:19:29.666Z,22.53
2017-09-25T23:21:57.993Z,21.13
2017-09-25T23:24:25.594Z,21.30
2017-09-25T23:26:53.933Z,20.47
2017-09-25T23:29:21.513Z,21.80
2017-09-25T23:31:49.103Z,21.73
2017-09-25T23:34:17.469Z,21.13
2017-09-25T23:36:45.045Z,20.77
2017-09-25T23:39:13.402Z,21.40
2017-09-25T23:41:41.019Z,21.53
2017-09-25T23:44:08.597Z,21.43
2017-09-25T23:46:36.274Z,20.73
2017-09-25T23:49:03.855Z,21.47
2017-09-25T23:51:31.434Z,20.30
2017-09-25T23:53:59.029Z,21.20
2017-09-25T23:56:26.799Z,21.20
2017-09-25T23:58:54.387Z,21.33
